createdAt,value
2023-02-11T00:00:58.418Z,3.73
2023-02-11T00:01:58.721Z,3.71
2023-02-11T00:02:58.858Z,3.73
2023-02-11T00:03:58.987Z,3.70
2023-02-11T00:04:59.211Z,3.70
2023-02-11T00:05:59.486Z,3.68
2023-02-11T00:06:59.704Z,3.70
2023-02-11T00:07:59.943Z,3.71
2023-02-11T00:09:00.180Z,3.74
2023-02-11T00:10:00.415Z,3.71
2023-02-11T00:11:00.650Z,3.71
2023-02-11T00:12:00.876Z,3.70
2023-02-11T00:13:01.098Z,3.70
2023-02-11T00:14:01.343Z,3.68
2023-02-11T00:15:01.576Z,3.68
2023-02-11T00:16:01.801Z,3.68
2023-02-11T00:17:02.089Z,3.70
2023-02-11T00:18:02.207Z,3.70
2023-02-11T00:19:02.429Z,3.70
2023-02-11T00:20:02.644Z,3.68
2023-02-11T00:21:02.884Z,3.67
2023-02-11T00:22:03.097Z,3.68
2023-02-11T00:23:03.318Z,3.66
2023-02-11T00:24:03.544Z,3.66
2023-02-11T00:25:03.774Z,3.68
2023-02-11T00:26:04.020Z,3.70
2023-02-11T00:27:04.249Z,3.73
2023-02-11T00:28:04.487Z,3.77
2023-02-11T00:29:04.707Z,3.78
2023-02-11T00:30:04.928Z,3.81
2023-02-11T00:31:05.310Z,3.81
2023-02-11T00:32:05.369Z,3.81
2023-02-11T00:33:09.545Z,3.82
2023-02-11T00:34:05.740Z,3.82
2023-02-11T00:35:05.959Z,3.85
2023-02-11T00:36:06.204Z,3.84
2023-02-11T00:37:06.411Z,3.84
2023-02-11T00:38:06.650Z,3.85
2023-02-11T00:39:06.833Z,3.86
2023-02-11T00:40:07.060Z,3.85
2023-02-11T00:41:07.287Z,3.86
2023-02-11T00:42:07.515Z,3.88
2023-02-11T00:43:07.780Z,3.86
2023-02-11T00:44:07.899Z,3.89
2023-02-11T00:45:08.113Z,3.92
2023-02-11T00:46:08.410Z,3.94
2023-02-11T00:47:08.567Z,3.92
2023-02-11T00:48:08.794Z,3.92
2023-02-11T00:49:09.009Z,3.94
2023-02-11T00:50:09.230Z,3.95
2023-02-11T00:51:09.467Z,3.96
2023-02-11T00:52:09.678Z,3.96
2023-02-11T00:53:09.886Z,4.00
2023-02-11T00:54:10.105Z,4.00
2023-02-11T00:55:10.324Z,4.03
2023-02-11T00:56:10.566Z,4.04
2023-02-11T00:57:10.779Z,4.04
2023-02-11T00:58:10.995Z,4.06
2023-02-11T00:59:11.206Z,4.12
2023-02-11T01:00:11.423Z,4.12
2023-02-11T01:01:11.672Z,4.14
2023-02-11T01:02:11.876Z,4.13
2023-02-11T01:03:12.074Z,4.14
2023-02-11T01:04:12.283Z,4.16
2023-02-11T01:05:12.599Z,4.16
2023-02-11T01:06:12.700Z,4.18
2023-02-11T01:07:12.838Z,4.13
2023-02-11T01:08:13.068Z,4.16
2023-02-11T01:09:13.286Z,4.16
2023-02-11T01:10:13.515Z,4.20
2023-02-11T01:11:13.718Z,4.21
2023-02-11T01:12:13.952Z,4.22
2023-02-11T01:13:14.144Z,4.22
2023-02-11T01:14:14.363Z,4.24
2023-02-11T01:15:14.564Z,4.22
2023-02-11T01:16:14.831Z,4.24
2023-02-11T01:17:14.938Z,4.24
2023-02-11T01:18:15.149Z,4.25
2023-02-11T01:19:15.358Z,4.25
2023-02-11T01:20:15.576Z,4.27
2023-02-11T01:21:15.792Z,4.28
2023-02-11T01:22:16.006Z,4.28
2023-02-11T01:23:16.217Z,4.30
2023-02-11T01:24:16.437Z,4.31
2023-02-11T01:25:16.644Z,4.31
2023-02-11T01:26:16.901Z,4.32
2023-02-11T01:27:17.092Z,4.36
2023-02-11T01:28:17.394Z,4.38
2023-02-11T01:29:17.500Z,4.38
2023-02-11T01:30:17.705Z,4.39
2023-02-11T01:31:17.961Z,4.40
2023-02-11T01:32:18.203Z,4.40
2023-02-11T01:33:18.348Z,4.42
2023-02-11T01:34:18.570Z,4.43
2023-02-11T01:35:18.788Z,4.45
2023-02-11T01:36:19.006Z,4.45
2023-02-11T01:37:19.207Z,4.48
2023-02-11T01:38:19.427Z,4.52
2023-02-11T01:39:19.623Z,4.50
2023-02-11T01:40:19.836Z,4.52
2023-02-11T01:41:20.052Z,4.53
2023-02-11T01:42:20.268Z,4.53
2023-02-11T01:43:20.475Z,4.53
2023-02-11T01:44:20.675Z,4.56
2023-02-11T01:45:20.878Z,4.56
2023-02-11T01:46:21.158Z,4.57
2023-02-11T01:47:21.259Z,4.53
2023-02-11T01:48:21.466Z,4.56
2023-02-11T01:49:21.712Z,4.57
2023-02-11T01:50:21.853Z,4.58
2023-02-11T01:51:22.059Z,4.60
2023-02-11T01:52:22.290Z,4.57
2023-02-11T01:53:22.485Z,4.58
2023-02-11T01:54:22.696Z,4.61
2023-02-11T01:55:22.895Z,4.63
2023-02-11T01:56:23.129Z,4.61
2023-02-11T01:57:23.354Z,4.60
2023-02-11T01:58:23.535Z,4.63
2023-02-11T01:59:23.742Z,4.66
2023-02-11T02:00:23.958Z,4.67
2023-02-11T02:01:24.339Z,4.66
2023-02-11T02:02:24.344Z,4.67
2023-02-11T02:03:24.569Z,4.67
2023-02-11T02:04:24.763Z,4.67
2023-02-11T02:05:24.975Z,4.66
2023-02-11T02:06:25.182Z,4.67
2023-02-11T02:07:25.382Z,4.67
2023-02-11T02:08:25.588Z,4.70
2023-02-11T02:09:25.780Z,4.70
2023-02-11T02:10:25.984Z,4.71
2023-02-11T02:11:26.197Z,4.71
2023-02-11T02:12:26.405Z,4.71
2023-02-11T02:13:26.601Z,4.74
2023-02-11T02:14:26.817Z,4.71
2023-02-11T02:15:27.009Z,4.71
2023-02-11T02:16:27.241Z,4.75
2023-02-11T02:17:27.371Z,4.76
2023-02-11T02:18:27.624Z,4.76
2023-02-11T02:19:27.795Z,4.79
2023-02-11T02:20:27.997Z,4.79
2023-02-11T02:21:28.232Z,4.82
2023-02-11T02:22:28.431Z,4.84
2023-02-11T02:23:28.641Z,4.84
2023-02-11T02:24:28.840Z,4.83
2023-02-11T02:25:29.039Z,4.84
2023-02-11T02:26:29.249Z,4.87
2023-02-11T02:27:29.459Z,4.90
2023-02-11T02:28:29.698Z,4.90
2023-02-11T02:29:29.819Z,4.90
2023-02-11T02:30:30.043Z,4.92
2023-02-11T02:31:30.306Z,4.94
2023-02-11T02:32:30.385Z,4.94
2023-02-11T02:33:30.602Z,4.97
2023-02-11T02:34:30.798Z,4.98
2023-02-11T02:35:30.996Z,5.00
2023-02-11T02:36:38.208Z,5.00
2023-02-11T02:37:31.390Z,5.00
2023-02-11T02:38:31.586Z,5.01
2023-02-11T02:39:31.816Z,5.02
2023-02-11T02:40:31.985Z,5.02
2023-02-11T02:41:32.238Z,5.04
2023-02-11T02:42:32.414Z,5.05
2023-02-11T02:43:32.689Z,5.07
2023-02-11T02:44:32.752Z,5.07
2023-02-11T02:45:32.979Z,5.08
2023-02-11T02:46:33.252Z,5.08
2023-02-11T02:47:33.428Z,5.10
2023-02-11T02:48:33.631Z,5.10
2023-02-11T02:49:33.837Z,5.12
2023-02-11T02:50:34.039Z,5.13
2023-02-11T02:51:34.262Z,5.13
2023-02-11T02:52:34.454Z,5.15
2023-02-11T02:53:34.643Z,5.12
2023-02-11T02:54:34.892Z,5.15
2023-02-11T02:55:35.005Z,5.16
2023-02-11T02:56:35.206Z,5.18
2023-02-11T02:57:35.409Z,5.16
2023-02-11T02:58:35.602Z,5.18
2023-02-11T02:59:35.798Z,5.19
2023-02-11T03:00:36.044Z,5.20
2023-02-11T03:01:36.270Z,5.22
2023-02-11T03:02:36.459Z,5.23
2023-02-11T03:03:36.668Z,5.25
2023-02-11T03:04:36.837Z,5.26
2023-02-11T03:05:37.031Z,5.26
2023-02-11T03:06:37.244Z,5.26
2023-02-11T03:07:37.426Z,5.26
2023-02-11T03:08:37.616Z,5.25
2023-02-11T03:09:37.803Z,5.25
2023-02-11T03:10:37.992Z,5.25
2023-02-11T03:11:38.216Z,5.29
2023-02-11T03:12:38.389Z,5.29
2023-02-11T03:13:38.610Z,5.29
2023-02-11T03:14:38.792Z,5.29
2023-02-11T03:15:39.013Z,5.31
2023-02-11T03:16:39.467Z,5.33
2023-02-11T03:17:39.514Z,5.36
2023-02-11T03:18:39.714Z,5.33
2023-02-11T03:19:39.925Z,5.33
2023-02-11T03:20:40.109Z,5.36
2023-02-11T03:21:40.329Z,5.36
2023-02-11T03:22:40.501Z,5.37
2023-02-11T03:23:40.712Z,5.37
2023-02-11T03:24:40.881Z,5.37
2023-02-11T03:25:41.074Z,5.37
2023-02-11T03:26:41.274Z,5.38
2023-02-11T03:27:41.482Z,5.40
2023-02-11T03:28:41.672Z,5.41
2023-02-11T03:29:41.870Z,5.40
2023-02-11T03:30:42.084Z,5.41
2023-02-11T03:31:42.431Z,5.38
2023-02-11T03:32:42.498Z,5.40
2023-02-11T03:33:42.684Z,5.41
2023-02-11T03:34:42.899Z,5.41
2023-02-11T03:35:43.078Z,5.40
2023-02-11T03:36:43.277Z,5.43
2023-02-11T03:37:43.480Z,5.44
2023-02-11T03:38:43.672Z,5.44
2023-02-11T03:39:43.860Z,5.44
2023-02-11T03:40:44.076Z,5.47
2023-02-11T03:41:44.296Z,5.44
2023-02-11T03:42:44.474Z,5.43
2023-02-11T03:43:44.670Z,5.44
2023-02-11T03:44:44.853Z,5.43
2023-02-11T03:45:45.055Z,5.44
2023-02-11T03:46:45.247Z,5.43
2023-02-11T03:47:45.433Z,5.41
2023-02-11T03:48:45.616Z,5.43
2023-02-11T03:49:45.824Z,5.40
2023-02-11T03:50:46.030Z,5.41
2023-02-11T03:51:46.248Z,5.41
2023-02-11T03:52:46.442Z,5.43
2023-02-11T03:53:46.645Z,5.43
2023-02-11T03:54:46.829Z,5.43
2023-02-11T03:55:47.020Z,5.44
2023-02-11T03:56:47.232Z,5.44
2023-02-11T03:57:47.440Z,5.44
2023-02-11T03:58:47.614Z,5.44
2023-02-11T03:59:47.804Z,5.46
2023-02-11T04:00:48.037Z,5.47
2023-02-11T04:01:48.253Z,5.47
2023-02-11T04:02:48.491Z,5.46
2023-02-11T04:03:48.572Z,5.47
2023-02-11T04:04:48.761Z,5.47
2023-02-11T04:05:49.125Z,5.47
2023-02-11T04:06:49.127Z,5.47
2023-02-11T04:07:49.316Z,5.47
2023-02-11T04:08:49.511Z,5.49
2023-02-11T04:09:49.709Z,5.51
2023-02-11T04:10:49.896Z,5.51
2023-02-11T04:11:50.168Z,5.51
2023-02-11T04:12:50.233Z,5.49
2023-02-11T04:13:50.442Z,5.51
2023-02-11T04:14:50.624Z,5.49
2023-02-11T04:15:51.122Z,5.52
2023-02-11T04:16:51.021Z,5.52
2023-02-11T04:17:51.220Z,5.55
2023-02-11T04:18:51.399Z,5.54
2023-02-11T04:19:51.596Z,5.55
2023-02-11T04:20:51.796Z,5.55
2023-02-11T04:21:52.010Z,5.54
2023-02-11T04:22:52.196Z,5.55
2023-02-11T04:23:52.382Z,5.56
2023-02-11T04:24:52.563Z,5.55
2023-02-11T04:25:53.030Z,5.56
2023-02-11T04:26:52.992Z,5.56
2023-02-11T04:27:53.179Z,5.58
2023-02-11T04:28:53.362Z,5.56
2023-02-11T04:29:53.558Z,5.58
2023-02-11T04:30:53.794Z,5.58
2023-02-11T04:31:54.069Z,5.59
2023-02-11T04:32:54.240Z,5.59
2023-02-11T04:33:54.428Z,5.62
2023-02-11T04:34:54.542Z,5.61
2023-02-11T04:35:54.705Z,5.62
2023-02-11T04:36:54.903Z,5.61
2023-02-11T04:37:55.101Z,5.59
2023-02-11T04:38:55.293Z,5.61
2023-02-11T04:39:55.483Z,5.62
2023-02-11T04:40:55.670Z,5.62
2023-02-11T04:41:55.909Z,5.59
2023-02-11T04:42:56.096Z,5.59
2023-02-11T04:43:56.269Z,5.58
2023-02-11T04:44:56.538Z,5.58
2023-02-11T04:45:56.752Z,5.59
2023-02-11T04:46:56.948Z,5.58
2023-02-11T04:47:57.158Z,5.58
2023-02-11T04:48:57.342Z,5.56
2023-02-11T04:49:57.547Z,5.56
2023-02-11T04:50:57.744Z,5.55
2023-02-11T04:51:57.961Z,5.56
2023-02-11T04:52:58.152Z,5.56
2023-02-11T04:53:58.337Z,5.55
2023-02-11T04:54:58.531Z,5.54
2023-02-11T04:55:58.735Z,5.54
2023-02-11T04:56:58.947Z,5.55
2023-02-11T04:57:59.158Z,5.54
2023-02-11T04:58:59.346Z,5.54
2023-02-11T04:59:59.570Z,5.55
2023-02-11T05:00:59.780Z,5.56
2023-02-11T05:01:59.934Z,5.56
2023-02-11T05:03:00.074Z,5.56
2023-02-11T05:04:00.232Z,5.56
2023-02-11T05:05:00.344Z,5.56
2023-02-11T05:06:00.606Z,5.56
2023-02-11T05:07:00.851Z,5.56
2023-02-11T05:08:01.034Z,5.56
2023-02-11T05:09:01.216Z,5.56
2023-02-11T05:10:01.420Z,5.55
2023-02-11T05:11:01.592Z,5.55
2023-02-11T05:12:01.803Z,5.55
2023-02-11T05:13:01.982Z,5.55
2023-02-11T05:14:02.233Z,5.55
2023-02-11T05:15:02.306Z,5.52
2023-02-11T05:16:02.488Z,5.52
2023-02-11T05:17:02.724Z,5.49
2023-02-11T05:18:02.969Z,5.47
2023-02-11T05:19:03.158Z,5.47
2023-02-11T05:20:03.358Z,5.46
2023-02-11T05:21:03.543Z,5.46
2023-02-11T05:22:03.933Z,5.46
2023-02-11T05:23:03.859Z,5.47
2023-02-11T05:24:04.072Z,5.44
2023-02-11T05:25:04.284Z,5.47
2023-02-11T05:26:04.489Z,5.49
2023-02-11T05:27:04.690Z,5.49
2023-02-11T05:28:04.909Z,5.49
2023-02-11T05:29:05.093Z,5.47
2023-02-11T05:30:05.305Z,5.47
2023-02-11T05:31:05.557Z,5.47
2023-02-11T05:32:05.665Z,5.47
2023-02-11T05:33:05.874Z,5.47
2023-02-11T05:34:06.117Z,5.49
2023-02-11T05:35:06.193Z,5.49
2023-02-11T05:36:06.405Z,5.49
2023-02-11T05:37:06.646Z,5.49
2023-02-11T05:38:06.821Z,5.47
2023-02-11T05:39:07.007Z,5.49
2023-02-11T05:40:07.207Z,5.49
2023-02-11T05:41:07.404Z,5.47
2023-02-11T05:42:07.628Z,5.49
2023-02-11T05:43:07.823Z,5.49
2023-02-11T05:44:08.059Z,5.47
2023-02-11T05:45:08.290Z,5.51
2023-02-11T05:46:08.543Z,5.54
2023-02-11T05:47:08.730Z,5.55
2023-02-11T05:48:08.925Z,5.55
2023-02-11T05:49:09.110Z,5.56
2023-02-11T05:50:09.319Z,5.55
2023-02-11T05:51:09.528Z,5.56
2023-02-11T05:52:09.718Z,5.56
2023-02-11T05:53:09.927Z,5.59
2023-02-11T05:54:10.153Z,5.58
2023-02-11T05:55:10.348Z,5.58
2023-02-11T05:56:10.556Z,5.56
2023-02-11T05:57:10.763Z,5.56
2023-02-11T05:58:10.917Z,5.56
2023-02-11T05:59:11.116Z,5.56
2023-02-11T06:00:11.346Z,5.58
2023-02-11T06:01:11.556Z,5.58
2023-02-11T06:02:11.790Z,5.58
2023-02-11T06:03:11.886Z,5.59
2023-02-11T06:04:12.104Z,5.58
2023-02-11T06:05:12.314Z,5.62
2023-02-11T06:06:12.570Z,5.64
2023-02-11T06:07:12.765Z,5.62
2023-02-11T06:08:12.993Z,5.64
2023-02-11T06:09:13.177Z,5.62
2023-02-11T06:10:13.387Z,5.64
2023-02-11T06:11:13.592Z,5.69
2023-02-11T06:12:13.853Z,5.70
2023-02-11T06:13:13.967Z,5.70
2023-02-11T06:14:14.145Z,5.70
2023-02-11T06:15:14.326Z,5.70
2023-02-11T06:16:14.624Z,5.70
2023-02-11T06:17:15.702Z,5.72
2023-02-11T06:18:14.880Z,5.73
2023-02-11T06:19:15.081Z,5.73
2023-02-11T06:20:15.279Z,5.76
2023-02-11T06:21:15.476Z,5.76
2023-02-11T06:22:15.690Z,5.76
2023-02-11T06:23:15.879Z,5.77
2023-02-11T06:24:21.651Z,5.79
2023-02-11T06:25:17.252Z,5.80
2023-02-11T06:26:16.453Z,5.80
2023-02-11T06:27:16.658Z,5.80
2023-02-11T06:28:16.934Z,5.79
2023-02-11T06:29:17.031Z,5.81
2023-02-11T06:30:17.236Z,5.83
2023-02-11T06:31:17.571Z,5.83
2023-02-11T06:32:39.444Z,5.83
2023-02-11T06:33:18.716Z,5.83
2023-02-11T06:34:17.921Z,5.81
2023-02-11T06:35:18.114Z,5.84
2023-02-11T06:36:18.312Z,5.87
2023-02-11T06:37:18.513Z,5.87
2023-02-11T06:38:18.706Z,5.88
2023-02-11T06:39:18.897Z,5.90
2023-02-11T06:40:19.084Z,5.88
2023-02-11T06:41:19.284Z,5.88
2023-02-11T06:42:19.484Z,5.90
2023-02-11T06:43:19.722Z,5.90
2023-02-11T06:44:19.909Z,5.87
2023-02-11T06:45:20.109Z,5.87
2023-02-11T06:46:20.317Z,5.87
2023-02-11T06:47:20.510Z,5.87
2023-02-11T06:48:20.699Z,5.84
2023-02-11T06:49:20.896Z,5.84
2023-02-11T06:50:21.101Z,5.87
2023-02-11T06:51:21.291Z,5.84
2023-02-11T06:52:21.501Z,5.88
2023-02-11T06:53:21.696Z,5.88
2023-02-11T06:54:21.911Z,5.90
2023-02-11T06:55:22.089Z,5.91
2023-02-11T06:56:22.285Z,5.91
2023-02-11T06:57:22.499Z,5.92
2023-02-11T06:58:22.694Z,5.91
2023-02-11T06:59:22.880Z,5.94
2023-02-11T07:00:23.085Z,5.92
2023-02-11T07:01:23.328Z,5.95
2023-02-11T07:02:23.437Z,5.97
2023-02-11T07:03:23.646Z,5.94
2023-02-11T07:04:23.836Z,5.95
2023-02-11T07:05:24.041Z,5.95
2023-02-11T07:06:24.250Z,5.97
2023-02-11T07:07:24.483Z,5.97
2023-02-11T07:08:24.682Z,5.95
2023-02-11T07:09:24.890Z,5.95
2023-02-11T07:10:25.087Z,5.97
2023-02-11T07:11:25.342Z,5.98
2023-02-11T07:12:25.556Z,5.98
2023-02-11T07:13:25.758Z,5.98
2023-02-11T07:14:25.954Z,5.99
2023-02-11T07:15:26.175Z,5.98
2023-02-11T07:16:26.407Z,5.98
2023-02-11T07:17:26.617Z,5.99
2023-02-11T07:18:26.824Z,6.01
2023-02-11T07:19:27.033Z,5.99
2023-02-11T07:20:27.240Z,5.99
2023-02-11T07:21:27.463Z,6.01
2023-02-11T07:22:27.689Z,6.02
2023-02-11T07:23:27.937Z,5.99
2023-02-11T07:24:28.030Z,5.99
2023-02-11T07:25:28.246Z,5.99
2023-02-11T07:26:28.450Z,6.01
2023-02-11T07:27:28.681Z,6.01
2023-02-11T07:28:28.928Z,6.01
2023-02-11T07:29:29.111Z,6.02
2023-02-11T07:30:29.368Z,6.02
2023-02-11T07:31:29.625Z,6.06
2023-02-11T07:32:29.631Z,6.07
2023-02-11T07:33:29.849Z,6.12
2023-02-11T07:34:30.190Z,6.12
2023-02-11T07:35:30.204Z,6.12
2023-02-11T07:36:30.417Z,6.13
2023-02-11T07:37:30.650Z,6.13
2023-02-11T07:38:30.850Z,6.13
2023-02-11T07:39:31.064Z,6.16
2023-02-11T07:40:31.259Z,6.17
2023-02-11T07:41:31.457Z,6.19
2023-02-11T07:42:31.671Z,6.20
2023-02-11T07:43:31.873Z,6.19
2023-02-11T07:44:32.067Z,6.25
2023-02-11T07:45:32.295Z,6.26
2023-02-11T07:46:32.559Z,6.29
2023-02-11T07:47:32.705Z,6.31
2023-02-11T07:48:32.899Z,6.34
2023-02-11T07:49:33.124Z,6.35
2023-02-11T07:50:33.315Z,6.38
2023-02-11T07:51:33.507Z,6.38
2023-02-11T07:52:33.715Z,6.39
2023-02-11T07:53:33.923Z,6.41
2023-02-11T07:54:34.120Z,6.39
2023-02-11T07:55:34.316Z,6.46
2023-02-11T07:56:34.522Z,6.47
2023-02-11T07:57:34.721Z,6.49
2023-02-11T07:58:34.929Z,6.50
2023-02-11T07:59:35.139Z,6.52
2023-02-11T08:00:35.406Z,6.52
2023-02-11T08:01:35.576Z,6.52
2023-02-11T08:02:35.878Z,6.52
2023-02-11T08:03:35.926Z,6.53
2023-02-11T08:04:36.131Z,6.53
2023-02-11T08:05:36.329Z,6.54
2023-02-11T08:06:36.525Z,6.56
2023-02-11T08:07:36.741Z,6.57
2023-02-11T08:08:36.932Z,6.57
2023-02-11T08:09:37.134Z,6.60
2023-02-11T08:10:37.315Z,6.64
2023-02-11T08:11:37.516Z,6.65
2023-02-11T08:12:37.722Z,6.67
2023-02-11T08:13:37.929Z,6.68
2023-02-11T08:14:38.131Z,6.70
2023-02-11T08:15:38.346Z,6.70
2023-02-11T08:16:38.582Z,6.72
2023-02-11T08:17:38.809Z,6.74
2023-02-11T08:18:38.892Z,6.72
2023-02-11T08:19:39.085Z,6.72
2023-02-11T08:20:39.316Z,6.74
2023-02-11T08:21:39.451Z,6.77
2023-02-11T08:22:39.563Z,6.77
2023-02-11T08:23:39.762Z,6.80
2023-02-11T08:24:39.954Z,6.83
2023-02-11T08:25:40.140Z,6.82
2023-02-11T08:26:40.339Z,6.80
2023-02-11T08:27:40.531Z,6.82
2023-02-11T08:28:40.715Z,6.82
2023-02-11T08:29:40.914Z,6.83
2023-02-11T08:30:41.107Z,6.85
2023-02-11T08:31:41.445Z,6.85
2023-02-11T08:32:41.458Z,6.86
2023-02-11T08:33:41.665Z,6.85
2023-02-11T08:34:41.851Z,6.86
2023-02-11T08:35:42.028Z,6.82
2023-02-11T08:36:49.227Z,6.82
2023-02-11T08:37:42.409Z,6.80
2023-02-11T08:38:42.611Z,6.80
2023-02-11T08:39:42.845Z,6.78
2023-02-11T08:40:42.922Z,6.77
2023-02-11T08:41:43.128Z,6.77
2023-02-11T08:42:43.383Z,6.77
2023-02-11T08:43:43.463Z,6.77
2023-02-11T08:44:43.669Z,6.75
2023-02-11T08:45:43.954Z,6.77
2023-02-11T08:46:44.018Z,6.77
2023-02-11T08:47:44.235Z,6.78
2023-02-11T08:48:44.465Z,6.77
2023-02-11T08:49:44.568Z,6.77
2023-02-11T08:50:44.765Z,6.77
2023-02-11T08:51:44.949Z,6.78
2023-02-11T08:52:45.157Z,6.80
2023-02-11T08:53:45.360Z,6.82
2023-02-11T08:54:45.547Z,6.78
2023-02-11T08:55:45.737Z,6.78
2023-02-11T08:56:45.924Z,6.78
2023-02-11T08:57:46.175Z,6.77
2023-02-11T08:58:46.253Z,6.78
2023-02-11T08:59:46.471Z,6.80
2023-02-11T09:00:46.620Z,6.78
2023-02-11T09:01:46.821Z,6.80
2023-02-11T09:02:47.030Z,6.78
2023-02-11T09:03:47.294Z,6.83
2023-02-11T09:04:47.363Z,6.83
2023-02-11T09:05:47.569Z,6.83
2023-02-11T09:06:47.755Z,6.83
2023-02-11T09:07:47.985Z,6.82
2023-02-11T09:08:48.184Z,6.82
2023-02-11T09:09:48.371Z,6.83
2023-02-11T09:10:48.994Z,6.85
2023-02-11T09:11:48.719Z,6.83
2023-02-11T09:12:48.923Z,6.83
2023-02-11T09:13:51.463Z,6.85
2023-02-11T09:14:49.308Z,6.85
2023-02-11T09:15:49.508Z,6.86
2023-02-11T09:16:49.761Z,6.87
2023-02-11T09:17:49.941Z,6.89
2023-02-11T09:18:50.117Z,6.89
2023-02-11T09:19:50.296Z,6.90
2023-02-11T09:20:50.857Z,6.90
2023-02-11T09:21:50.697Z,6.92
2023-02-11T09:22:50.886Z,6.93
2023-02-11T09:23:51.104Z,6.93
2023-02-11T09:24:51.333Z,6.93
2023-02-11T09:25:51.909Z,6.96
2023-02-11T09:26:51.685Z,6.97
2023-02-11T09:27:51.895Z,7.01
2023-02-11T09:28:52.130Z,7.01
2023-02-11T09:29:52.325Z,7.01
2023-02-11T09:30:52.985Z,7.05
2023-02-11T09:31:52.914Z,7.05
2023-02-11T09:32:52.881Z,7.07
2023-02-11T09:33:53.124Z,7.05
2023-02-11T09:34:53.191Z,7.07
2023-02-11T09:35:53.394Z,7.05
2023-02-11T09:36:53.597Z,7.07
2023-02-11T09:37:53.821Z,7.08
2023-02-11T09:38:54.000Z,7.08
2023-02-11T09:39:54.190Z,7.10
2023-02-11T09:40:54.385Z,7.08
2023-02-11T09:41:54.578Z,7.10
2023-02-11T09:42:56.093Z,7.11
2023-02-11T09:43:54.972Z,7.11
2023-02-11T09:44:55.186Z,7.11
2023-02-11T09:45:55.401Z,7.14
2023-02-11T09:46:55.650Z,7.15
2023-02-11T09:47:55.739Z,7.19
2023-02-11T09:48:55.930Z,7.18
2023-02-11T09:49:56.128Z,7.19
2023-02-11T09:50:56.317Z,7.22
2023-02-11T09:51:56.521Z,7.26
2023-02-11T09:52:56.729Z,7.26
2023-02-11T09:53:59.397Z,7.29
2023-02-11T09:54:57.150Z,7.29
2023-02-11T09:55:57.332Z,7.32
2023-02-11T09:56:57.519Z,7.33
2023-02-11T09:57:57.729Z,7.37
2023-02-11T09:58:57.914Z,7.37
2023-02-11T09:59:58.235Z,7.39
2023-02-11T10:00:58.241Z,7.40
2023-02-11T10:01:58.421Z,7.41
2023-02-11T10:02:58.640Z,7.43
2023-02-11T10:03:58.886Z,7.41
2023-02-11T10:04:58.981Z,7.43
2023-02-11T10:05:59.175Z,7.43
2023-02-11T10:06:59.341Z,7.44
2023-02-11T10:07:59.546Z,7.41
2023-02-11T10:08:59.753Z,7.40
2023-02-11T10:09:59.949Z,7.41
2023-02-11T10:11:00.146Z,7.39
2023-02-11T10:12:00.338Z,7.40
2023-02-11T10:13:00.561Z,7.41
2023-02-11T10:14:00.746Z,7.43
2023-02-11T10:15:00.928Z,7.44
2023-02-11T10:16:01.161Z,7.44
2023-02-11T10:17:01.284Z,7.44
2023-02-11T10:18:01.489Z,7.44
2023-02-11T10:19:01.597Z,7.44
2023-02-11T10:20:01.799Z,7.46
2023-02-11T10:21:01.993Z,7.43
2023-02-11T10:22:02.192Z,7.43
2023-02-11T10:23:02.396Z,7.41
2023-02-11T10:24:02.592Z,7.40
2023-02-11T10:25:02.808Z,7.39
2023-02-11T10:26:02.949Z,7.37
2023-02-11T10:27:03.135Z,7.36
2023-02-11T10:28:03.375Z,7.33
2023-02-11T10:29:03.489Z,7.32
2023-02-11T10:30:03.685Z,7.33
2023-02-11T10:31:03.981Z,7.37
2023-02-11T10:32:04.146Z,7.33
2023-02-11T10:33:04.240Z,7.32
2023-02-11T10:34:04.436Z,7.32
2023-02-11T10:35:04.715Z,7.32
2023-02-11T10:36:04.810Z,7.29
2023-02-11T10:37:04.973Z,7.32
2023-02-11T10:38:05.163Z,7.31
2023-02-11T10:39:05.346Z,7.32
2023-02-11T10:40:05.534Z,7.33
2023-02-11T10:41:05.712Z,7.33
2023-02-11T10:42:05.900Z,7.32
2023-02-11T10:43:06.097Z,7.31
2023-02-11T10:44:06.319Z,7.32
2023-02-11T10:45:06.499Z,7.32
2023-02-11T10:46:06.739Z,7.32
2023-02-11T10:47:06.801Z,7.33
2023-02-11T10:48:07.020Z,7.33
2023-02-11T10:49:07.188Z,7.36
2023-02-11T10:50:07.370Z,7.33
2023-02-11T10:51:07.549Z,7.33
2023-02-11T10:52:07.729Z,7.36
2023-02-11T10:53:07.923Z,7.37
2023-02-11T10:54:08.110Z,7.36
2023-02-11T10:55:08.313Z,7.33
2023-02-11T10:56:08.502Z,7.31
2023-02-11T10:57:08.683Z,7.32
2023-02-11T10:58:08.876Z,7.33
2023-02-11T10:59:09.059Z,7.37
2023-02-11T11:00:09.235Z,7.36
2023-02-11T11:01:23.508Z,7.32
2023-02-11T11:02:10.554Z,7.33
2023-02-11T11:03:09.771Z,7.33
2023-02-11T11:04:09.939Z,7.37
2023-02-11T11:05:10.134Z,7.39
2023-02-11T11:06:10.367Z,7.39
2023-02-11T11:07:10.446Z,7.37
2023-02-11T11:08:10.644Z,7.36
2023-02-11T11:09:10.836Z,7.36
2023-02-11T11:10:11.008Z,7.36
2023-02-11T11:11:11.194Z,7.36
2023-02-11T11:12:11.367Z,7.33
2023-02-11T11:13:11.584Z,7.33
2023-02-11T11:14:11.764Z,7.33
2023-02-11T11:15:11.954Z,7.37
2023-02-11T11:16:12.185Z,7.39
2023-02-11T11:17:12.273Z,7.37
2023-02-11T11:18:21.385Z,7.39
2023-02-11T11:19:13.645Z,7.37
2023-02-11T11:20:12.823Z,7.40
2023-02-11T11:21:13.004Z,7.40
2023-02-11T11:22:13.174Z,7.37
2023-02-11T11:23:13.381Z,7.41
2023-02-11T11:24:13.566Z,7.41
2023-02-11T11:25:13.773Z,7.39
2023-02-11T11:26:13.991Z,7.37
2023-02-11T11:27:14.180Z,7.39
2023-02-11T11:28:14.455Z,7.40
2023-02-11T11:29:14.555Z,7.39
2023-02-11T11:30:14.742Z,7.37
2023-02-11T11:31:15.061Z,7.39
2023-02-11T11:32:15.120Z,7.39
2023-02-11T11:33:15.310Z,7.40
2023-02-11T11:34:15.504Z,7.37
2023-02-11T11:35:15.737Z,7.37
2023-02-11T11:36:15.809Z,7.36
2023-02-11T11:37:16.014Z,7.37
2023-02-11T11:38:16.201Z,7.36
2023-02-11T11:39:16.392Z,7.40
2023-02-11T11:40:16.748Z,7.39
2023-02-11T11:41:16.757Z,7.37
2023-02-11T11:42:16.933Z,7.37
2023-02-11T11:43:17.154Z,7.39
2023-02-11T11:44:17.340Z,7.37
2023-02-11T11:45:17.522Z,7.40
2023-02-11T11:46:17.724Z,7.41
2023-02-11T11:47:17.897Z,7.43
2023-02-11T11:48:18.116Z,7.43
2023-02-11T11:49:18.307Z,7.41
2023-02-11T11:50:20.987Z,7.41
2023-02-11T11:51:18.618Z,7.43
2023-02-11T11:52:18.797Z,7.43
2023-02-11T11:53:19.007Z,7.46
2023-02-11T11:54:19.186Z,7.44
2023-02-11T11:55:19.383Z,7.46
2023-02-11T11:56:19.556Z,7.48
2023-02-11T11:57:19.750Z,7.50
2023-02-11T11:58:19.950Z,7.50
2023-02-11T11:59:20.144Z,7.51
2023-02-11T12:00:20.350Z,7.53
2023-02-11T12:01:20.539Z,7.51
2023-02-11T12:02:20.782Z,7.53
2023-02-11T12:03:20.941Z,7.51
2023-02-11T12:04:21.046Z,7.55
2023-02-11T12:05:22.190Z,7.56
2023-02-11T12:06:21.371Z,7.58
2023-02-11T12:07:23.946Z,7.59
2023-02-11T12:08:21.710Z,7.59
2023-02-11T12:09:21.891Z,7.64
2023-02-11T12:10:22.070Z,7.62
2023-02-11T12:11:22.252Z,7.62
2023-02-11T12:12:22.437Z,7.62
2023-02-11T12:13:22.643Z,7.64
2023-02-11T12:14:22.832Z,7.64
2023-02-11T12:15:23.030Z,7.66
2023-02-11T12:16:23.247Z,7.64
2023-02-11T12:17:23.408Z,7.64
2023-02-11T12:18:23.599Z,7.67
2023-02-11T12:19:23.788Z,7.70
2023-02-11T12:20:23.971Z,7.72
2023-02-11T12:21:24.158Z,7.74
2023-02-11T12:22:24.345Z,7.74
2023-02-11T12:23:24.558Z,7.77
2023-02-11T12:24:24.731Z,7.78
2023-02-11T12:25:24.918Z,7.80
2023-02-11T12:26:25.097Z,7.80
2023-02-11T12:27:25.277Z,7.80
2023-02-11T12:28:25.545Z,7.80
2023-02-11T12:29:25.672Z,7.81
2023-02-11T12:30:25.846Z,7.83
2023-02-11T12:31:26.131Z,7.83
2023-02-11T12:32:26.181Z,7.84
2023-02-11T12:33:26.423Z,7.84
2023-02-11T12:34:26.463Z,7.83
2023-02-11T12:35:26.645Z,7.83
2023-02-11T12:36:26.822Z,7.84
2023-02-11T12:37:26.999Z,7.85
2023-02-11T12:38:27.193Z,7.85
2023-02-11T12:39:27.384Z,7.85
2023-02-11T12:40:27.560Z,7.87
2023-02-11T12:41:27.746Z,7.85
2023-02-11T12:42:27.922Z,7.85
2023-02-11T12:43:28.119Z,7.85
2023-02-11T12:44:28.302Z,7.87
2023-02-11T12:45:28.529Z,7.85
2023-02-11T12:46:28.596Z,7.84
2023-02-11T12:47:28.788Z,7.87
2023-02-11T12:48:28.965Z,7.90
2023-02-11T12:49:29.157Z,7.88
2023-02-11T12:50:29.321Z,7.90
2023-02-11T12:51:29.507Z,7.90
2023-02-11T12:52:29.666Z,7.91
2023-02-11T12:53:29.866Z,7.95
2023-02-11T12:54:30.032Z,7.96
2023-02-11T12:55:30.210Z,7.99
2023-02-11T12:56:30.381Z,7.98
2023-02-11T12:57:30.562Z,7.96
2023-02-11T12:58:44.058Z,7.98
2023-02-11T12:59:31.905Z,7.96
2023-02-11T13:00:31.070Z,7.96
2023-02-11T13:01:31.341Z,7.99
2023-02-11T13:02:31.469Z,7.99
2023-02-11T13:03:31.560Z,8.01
2023-02-11T13:04:31.721Z,8.02
2023-02-11T13:05:31.912Z,8.03
2023-02-11T13:06:32.096Z,8.02
2023-02-11T13:07:32.300Z,8.01
2023-02-11T13:08:32.485Z,7.99
2023-02-11T13:09:32.674Z,8.02
2023-02-11T13:10:32.830Z,8.01
2023-02-11T13:11:32.996Z,8.01
2023-02-11T13:12:33.154Z,7.99
2023-02-11T13:13:33.352Z,8.01
2023-02-11T13:14:33.540Z,7.98
2023-02-11T13:15:33.722Z,7.98
2023-02-11T13:16:33.945Z,7.99
2023-02-11T13:17:34.115Z,7.99
2023-02-11T13:18:34.305Z,7.98
2023-02-11T13:19:34.469Z,7.98
2023-02-11T13:20:34.640Z,7.96
2023-02-11T13:21:34.854Z,7.96